Terminal Aerodrome Forecast
Issued by NWS Midland/Odessa, TX

Home | Current Version | Previous Version | Text Only | Print | Product List | Glossary On
Versions: 1 2 3 4 5 6 7 8 9 10 11 12 13 14 15
000
FTUS44 KMAF 011800 AAA
TAFMAF
TAF AMD
KMAF 011817Z 0118/0218 20011G18KT P6SM FEW100
     FM020100 17017G23KT P6SM SKC
     FM021000 17010KT P6SM SKC=

USA.gov is the U.S. government's official web portal to all federal, state and local government web resources and services.